createdAt,value
2022-08-08T00:01:00.093Z,1.70
2022-08-08T00:03:31.309Z,1.90
2022-08-08T00:06:40.085Z,1.70
2022-08-08T00:09:18.028Z,1.40
2022-08-08T00:12:07.364Z,1.53
2022-08-08T00:15:00.066Z,1.73
2022-08-08T00:17:58.409Z,1.50
2022-08-08T00:20:36.188Z,1.50
2022-08-08T00:23:14.723Z,2.30
2022-08-08T00:25:53.962Z,1.73
2022-08-08T00:28:46.322Z,1.70
2022-08-08T00:32:28.584Z,1.70
2022-08-08T00:35:00.460Z,1.90
2022-08-08T00:38:02.090Z,1.90
2022-08-08T00:41:07.414Z,1.83
2022-08-08T00:44:00.540Z,1.40
2022-08-08T00:47:14.088Z,1.60
2022-08-08T00:50:26.429Z,1.40
2022-08-08T00:53:31.756Z,1.73
2022-08-08T00:56:35.524Z,1.70
2022-08-08T00:59:44.495Z,1.67
2022-08-08T01:03:59.470Z,1.70
2022-08-08T01:06:17.846Z,1.60
2022-08-08T01:10:08.964Z,1.53
2022-08-08T01:13:43.256Z,1.70
2022-08-08T01:16:45.888Z,1.67
2022-08-08T01:19:52.432Z,1.70
2022-08-08T01:22:48.661Z,1.53
2022-08-08T01:25:39.954Z,1.97
2022-08-08T01:28:47.330Z,1.53
2022-08-08T01:32:12.837Z,1.80
2022-08-08T01:34:41.203Z,1.93
2022-08-08T01:37:57.922Z,1.90
2022-08-08T01:41:26.279Z,1.73
2022-08-08T01:44:40.441Z,1.90
2022-08-08T01:48:16.409Z,1.80
2022-08-08T01:51:32.378Z,1.73
2022-08-08T01:55:26.978Z,1.70
2022-08-08T01:58:04.303Z,2.10
2022-08-08T02:01:16.074Z,2.10
2022-08-08T02:04:12.511Z,1.70
2022-08-08T02:07:10.341Z,1.90
2022-08-08T02:10:29.846Z,1.63
2022-08-08T02:13:54.733Z,1.67
2022-08-08T02:16:35.731Z,1.57
2022-08-08T02:20:07.869Z,1.70
2022-08-08T02:23:16.492Z,2.03
2022-08-08T02:26:16.044Z,1.90
2022-08-08T02:29:18.777Z,2.03
2022-08-08T02:32:05.485Z,1.80
2022-08-08T02:35:14.299Z,1.60
2022-08-08T02:38:09.163Z,1.97
2022-08-08T02:40:49.861Z,2.13
2022-08-08T02:44:38.613Z,1.80
2022-08-08T02:47:21.377Z,1.90
2022-08-08T02:50:19.436Z,2.10
2022-08-08T02:53:33.853Z,2.00
2022-08-08T02:56:47.892Z,1.80
2022-08-08T03:00:29.637Z,4.67
2022-08-08T03:05:05.294Z,2.13
2022-08-08T03:07:01.987Z,1.90
2022-08-08T03:10:32.893Z,2.47
2022-08-08T03:15:54.331Z,1.90
2022-08-08T03:17:06.027Z,1.90
2022-08-08T03:20:03.554Z,1.80
2022-08-08T03:22:38.447Z,2.13
2022-08-08T03:25:18.765Z,2.17
2022-08-08T03:28:02.443Z,2.10
2022-08-08T03:30:29.570Z,1.93
2022-08-08T03:33:55.885Z,1.80
2022-08-08T03:36:05.539Z,1.90
2022-08-08T03:38:57.695Z,2.20
2022-08-08T03:42:12.652Z,1.70
2022-08-08T03:44:25.248Z,1.70
2022-08-08T03:46:53.006Z,2.17
2022-08-08T03:49:56.644Z,2.33
2022-08-08T03:52:13.235Z,2.00
2022-08-08T03:55:01.472Z,3.47
2022-08-08T03:58:30.935Z,1.93
2022-08-08T04:00:20.109Z,2.00
2022-08-08T04:03:03.494Z,1.70
2022-08-08T04:05:35.558Z,1.90
2022-08-08T04:08:08.151Z,2.03
2022-08-08T04:10:37.282Z,2.00
2022-08-08T04:13:18.230Z,1.90
2022-08-08T04:15:54.983Z,2.13
2022-08-08T04:18:30.543Z,2.07
2022-08-08T04:20:58.048Z,2.20
2022-08-08T04:23:24.858Z,2.20
2022-08-08T04:26:05.302Z,2.10
2022-08-08T04:28:41.612Z,1.77
2022-08-08T04:31:09.377Z,1.90
2022-08-08T04:33:41.803Z,2.33
2022-08-08T04:36:08.891Z,1.90
2022-08-08T04:38:35.660Z,2.00
2022-08-08T04:41:02.506Z,2.00
2022-08-08T04:43:46.234Z,2.10
2022-08-08T04:46:14.965Z,1.90
2022-08-08T04:48:41.985Z,2.07
2022-08-08T04:51:09.394Z,2.03
2022-08-08T04:54:30.271Z,2.10
2022-08-08T04:56:24.136Z,2.43
2022-08-08T04:58:50.983Z,1.90
2022-08-08T05:01:18.271Z,2.00
2022-08-08T05:04:10.001Z,1.90
2022-08-08T05:06:32.163Z,1.73
2022-08-08T05:09:02.814Z,2.00
2022-08-08T05:11:38.837Z,2.27
2022-08-08T05:14:08.474Z,2.00
2022-08-08T05:16:50.926Z,2.00
2022-08-08T05:20:11.951Z,1.80
2022-08-08T05:22:09.921Z,1.90
2022-08-08T05:24:38.418Z,2.10
2022-08-08T05:27:06.403Z,2.40
2022-08-08T05:29:35.874Z,1.87
2022-08-08T05:32:07.275Z,2.10
2022-08-08T05:34:50.017Z,1.83
2022-08-08T05:37:39.024Z,1.90
2022-08-08T05:40:14.855Z,2.33
2022-08-08T05:42:49.078Z,1.60
2022-08-08T05:45:31.079Z,1.90
2022-08-08T05:48:08.568Z,2.13
2022-08-08T05:50:36.630Z,1.87
2022-08-08T05:53:54.751Z,1.60
2022-08-08T05:56:11.619Z,2.50
2022-08-08T05:58:54.201Z,1.60
2022-08-08T06:01:56.695Z,1.67
2022-08-08T06:04:23.567Z,1.75
2022-08-08T06:07:00.284Z,1.70
2022-08-08T06:09:59.105Z,1.70
2022-08-08T06:12:30.765Z,1.90
2022-08-08T06:15:03.985Z,1.93
2022-08-08T06:17:51.067Z,1.63
2022-08-08T06:20:27.509Z,1.60
2022-08-08T06:22:56.505Z,1.30
2022-08-08T06:26:35.294Z,1.57
2022-08-08T06:28:29.240Z,1.30
2022-08-08T06:31:01.335Z,1.50
2022-08-08T06:34:26.354Z,1.30
2022-08-08T06:36:53.212Z,1.20
2022-08-08T06:39:25.188Z,1.20
2022-08-08T06:42:03.119Z,1.00
2022-08-08T06:44:32.392Z,1.20
2022-08-08T06:46:59.542Z,1.40
2022-08-08T06:49:55.112Z,1.03
2022-08-08T06:52:17.190Z,1.20
2022-08-08T06:54:48.929Z,1.15
2022-08-08T06:57:16.044Z,1.23
2022-08-08T07:00:03.724Z,1.10
2022-08-08T07:02:34.835Z,1.00
2022-08-08T07:05:07.883Z,1.00
2022-08-08T07:07:49.731Z,1.20
2022-08-08T07:10:23.322Z,1.57
2022-08-08T07:12:55.117Z,1.50
2022-08-08T07:16:04.971Z,1.30
2022-08-08T07:19:17.599Z,1.33
2022-08-08T07:22:05.175Z,1.10
2022-08-08T07:24:51.606Z,1.50
2022-08-08T07:27:27.728Z,1.20
2022-08-08T07:30:05.744Z,1.10
2022-08-08T07:32:42.190Z,1.47
2022-08-08T07:35:11.130Z,1.20
2022-08-08T07:38:04.651Z,0.90
2022-08-08T07:40:36.135Z,1.17
2022-08-08T07:43:09.301Z,1.30
2022-08-08T07:46:05.606Z,1.00
2022-08-08T07:48:25.031Z,0.97
2022-08-08T07:51:00.642Z,1.00
2022-08-08T07:54:02.112Z,1.10
2022-08-08T07:56:35.760Z,1.00
2022-08-08T07:59:15.344Z,0.90
2022-08-08T08:02:36.488Z,0.93
2022-08-08T08:04:49.390Z,0.80
2022-08-08T08:07:26.009Z,0.87
2022-08-08T08:10:02.721Z,1.00
2022-08-08T08:12:41.195Z,0.90
2022-08-08T08:15:16.181Z,0.90
2022-08-08T08:17:48.388Z,0.90
2022-08-08T08:20:19.235Z,0.80
2022-08-08T08:22:47.663Z,0.93
2022-08-08T08:25:16.739Z,1.00
2022-08-08T08:27:46.983Z,1.23
2022-08-08T08:30:14.715Z,0.90
2022-08-08T08:32:51.068Z,1.00
2022-08-08T08:35:21.476Z,1.33
2022-08-08T08:38:16.131Z,0.90
2022-08-08T08:40:44.013Z,0.90
2022-08-08T08:43:20.937Z,0.80
2022-08-08T08:45:57.355Z,1.40
2022-08-08T08:48:25.512Z,1.13
2022-08-08T08:50:55.067Z,0.90
2022-08-08T08:53:54.890Z,0.80
2022-08-08T08:56:13.363Z,0.80
2022-08-08T08:58:46.756Z,0.90
2022-08-08T09:01:20.695Z,1.00
2022-08-08T09:03:51.483Z,1.00
2022-08-08T09:06:36.625Z,1.10
2022-08-08T09:09:18.740Z,0.93
2022-08-08T09:12:01.396Z,1.70
2022-08-08T09:14:30.565Z,1.13
2022-08-08T09:16:57.472Z,1.00
2022-08-08T09:21:56.802Z,1.00
2022-08-08T09:22:13.431Z,0.90
2022-08-08T09:24:55.954Z,2.20
2022-08-08T09:27:57.690Z,1.17
2022-08-08T09:30:17.504Z,1.00
2022-08-08T09:33:55.711Z,0.80
2022-08-08T09:35:50.034Z,1.40
2022-08-08T09:38:52.704Z,0.83
2022-08-08T09:42:14.139Z,1.00
2022-08-08T09:45:08.093Z,0.93
2022-08-08T09:48:11.474Z,1.17
2022-08-08T09:50:32.463Z,1.00
2022-08-08T09:53:23.865Z,1.30
2022-08-08T09:56:04.314Z,3.03
2022-08-08T09:58:45.284Z,0.90
2022-08-08T10:01:59.120Z,1.30
2022-08-08T10:04:14.904Z,1.13
2022-08-08T10:07:07.470Z,0.90
2022-08-08T10:09:35.943Z,1.00
2022-08-08T10:12:54.162Z,2.10
2022-08-08T10:15:37.403Z,1.00
2022-08-08T10:18:13.195Z,1.43
2022-08-08T10:20:51.435Z,0.97
2022-08-08T10:23:58.405Z,0.90
2022-08-08T10:26:52.458Z,1.07
2022-08-08T10:30:16.505Z,1.07
2022-08-08T10:33:00.766Z,1.00
2022-08-08T10:36:09.691Z,0.83
2022-08-08T10:38:20.359Z,1.20
2022-08-08T10:40:53.218Z,0.87
2022-08-08T10:43:22.269Z,0.97
2022-08-08T10:45:56.774Z,1.10
2022-08-08T10:48:38.825Z,1.02
2022-08-08T10:51:31.187Z,1.13
2022-08-08T10:54:02.229Z,0.80
2022-08-08T10:56:36.384Z,1.10
2022-08-08T10:59:13.985Z,1.70
2022-08-08T11:01:54.263Z,0.80
2022-08-08T11:04:29.746Z,1.03
2022-08-08T11:07:06.851Z,1.43
2022-08-08T11:09:34.715Z,1.13
2022-08-08T11:12:12.911Z,1.00
2022-08-08T11:14:57.015Z,0.83
2022-08-08T11:17:58.194Z,1.17
2022-08-08T11:20:28.371Z,1.10
2022-08-08T11:23:05.807Z,1.00
2022-08-08T11:25:43.589Z,1.10
2022-08-08T11:28:29.394Z,1.05
2022-08-08T11:31:03.924Z,1.20
2022-08-08T11:33:52.920Z,0.97
2022-08-08T11:36:22.822Z,1.53
2022-08-08T11:38:56.275Z,3.83
2022-08-08T11:41:32.300Z,15.50
2022-08-08T11:44:02.139Z,30.93
2022-08-08T11:46:31.675Z,22.00
2022-08-08T11:49:04.351Z,110.03
2022-08-08T11:51:38.246Z,149.73
2022-08-08T11:54:31.611Z,83.68
2022-08-08T11:57:14.120Z,46.47
2022-08-08T12:00:07.168Z,20.00
2022-08-08T12:02:50.931Z,3.63
2022-08-08T12:05:22.745Z,1.90
2022-08-08T12:07:55.946Z,1.10
2022-08-08T12:10:30.298Z,0.90
2022-08-08T12:13:07.114Z,1.37
2022-08-08T12:15:46.737Z,0.83
2022-08-08T12:18:20.754Z,1.77
2022-08-08T12:20:50.812Z,1.00
2022-08-08T12:23:43.816Z,0.90
2022-08-08T12:26:42.793Z,2.17
2022-08-08T12:29:40.693Z,2.30
2022-08-08T12:32:20.255Z,1.00
2022-08-08T12:35:04.747Z,1.03
2022-08-08T12:38:01.939Z,0.97
2022-08-08T12:40:56.663Z,2.23
2022-08-08T12:43:32.546Z,1.00
2022-08-08T12:46:19.383Z,0.80
2022-08-08T12:49:25.690Z,0.70
2022-08-08T12:51:59.177Z,1.10
2022-08-08T12:54:37.398Z,1.00
2022-08-08T12:57:17.877Z,1.10
2022-08-08T13:00:04.729Z,0.70
2022-08-08T13:02:35.819Z,0.87
2022-08-08T13:05:25.653Z,0.90
2022-08-08T13:08:04.391Z,0.97
2022-08-08T13:10:36.606Z,0.97
2022-08-08T13:13:35.158Z,0.80
2022-08-08T13:16:25.622Z,3.00
2022-08-08T13:19:01.694Z,1.17
2022-08-08T13:21:55.637Z,0.97
2022-08-08T13:24:47.878Z,1.03
2022-08-08T13:27:37.741Z,1.60
2022-08-08T13:30:06.921Z,0.83
2022-08-08T13:32:36.549Z,0.90
2022-08-08T13:35:11.781Z,0.87
2022-08-08T13:38:06.673Z,4.63
2022-08-08T13:40:35.610Z,0.90
2022-08-08T13:43:03.983Z,1.00
2022-08-08T13:45:31.459Z,0.70
2022-08-08T13:48:00.256Z,1.10
2022-08-08T13:50:34.609Z,1.20
2022-08-08T13:53:23.059Z,0.90
2022-08-08T13:56:01.121Z,0.80
2022-08-08T13:58:31.825Z,0.90
2022-08-08T14:01:18.368Z,0.90
2022-08-08T14:03:57.989Z,2.67
2022-08-08T14:06:33.656Z,1.17
2022-08-08T14:09:18.535Z,2.90
2022-08-08T14:11:50.239Z,2.80
2022-08-08T14:14:21.050Z,1.03
2022-08-08T14:16:53.264Z,1.00
2022-08-08T14:19:57.839Z,0.80
2022-08-08T14:22:29.760Z,0.97
2022-08-08T14:24:59.891Z,0.87
2022-08-08T14:27:41.211Z,2.60
2022-08-08T14:30:18.011Z,2.37
2022-08-08T14:32:53.861Z,1.00
2022-08-08T14:35:35.325Z,0.80
2022-08-08T14:38:34.076Z,1.47
2022-08-08T14:40:59.512Z,1.67
2022-08-08T14:44:02.885Z,0.93
2022-08-08T14:46:22.311Z,1.70
2022-08-08T14:49:09.409Z,0.90
2022-08-08T14:51:51.852Z,0.52
2022-08-08T14:54:29.065Z,1.00
2022-08-08T14:56:58.105Z,0.90
2022-08-08T14:59:44.163Z,0.90
2022-08-08T15:02:15.663Z,0.80
2022-08-08T15:04:43.246Z,0.85
2022-08-08T15:07:24.354Z,0.90
2022-08-08T15:09:59.606Z,0.80
2022-08-08T15:12:27.651Z,1.75
2022-08-08T15:14:55.569Z,0.73
2022-08-08T15:17:23.484Z,0.60
2022-08-08T15:19:51.778Z,2.42
2022-08-08T15:22:23.815Z,0.60
2022-08-08T15:24:51.536Z,0.80
2022-08-08T15:27:57.918Z,1.58
2022-08-08T15:30:08.148Z,1.00
2022-08-08T15:32:40.182Z,1.00
2022-08-08T15:35:07.905Z,0.77
2022-08-08T15:37:35.207Z,0.70
2022-08-08T15:40:02.630Z,0.77
2022-08-08T15:42:41.521Z,1.07
2022-08-08T15:45:10.709Z,0.60
2022-08-08T15:47:37.544Z,0.70
2022-08-08T15:50:09.606Z,1.63
2022-08-08T15:52:46.704Z,2.83
2022-08-08T15:55:13.742Z,0.90
2022-08-08T15:57:40.554Z,3.33
2022-08-08T16:00:27.390Z,1.00
2022-08-08T16:02:57.824Z,2.60
2022-08-08T16:05:35.930Z,0.83
2022-08-08T16:08:13.218Z,0.70
2022-08-08T16:13:21.035Z,0.60
2022-08-08T16:13:46.166Z,0.70
2022-08-08T16:16:18.131Z,1.07
2022-08-08T16:18:57.107Z,1.00
2022-08-08T16:21:29.403Z,1.10
2022-08-08T16:23:58.747Z,0.73
2022-08-08T16:26:34.702Z,0.70
2022-08-08T16:29:15.680Z,0.80
2022-08-08T16:31:49.132Z,0.80
2022-08-08T16:34:20.486Z,0.90
2022-08-08T16:36:50.498Z,0.80
2022-08-08T16:39:49.101Z,1.00
2022-08-08T16:42:05.893Z,0.97
2022-08-08T16:44:33.837Z,0.90
2022-08-08T16:47:21.609Z,1.20
2022-08-08T16:50:08.656Z,0.83
2022-08-08T16:55:19.493Z,0.80
2022-08-08T16:55:55.183Z,0.60
2022-08-08T16:58:17.873Z,0.90
2022-08-08T17:00:48.899Z,0.70
2022-08-08T17:03:16.515Z,0.67
2022-08-08T17:05:53.432Z,0.60
2022-08-08T17:08:20.688Z,0.80
2022-08-08T17:10:57.509Z,0.70
2022-08-08T17:13:27.571Z,0.70
2022-08-08T17:16:15.204Z,0.77
2022-08-08T17:18:42.492Z,0.60
2022-08-08T17:21:10.614Z,0.80
2022-08-08T17:24:02.037Z,0.80
2022-08-08T17:26:28.957Z,0.90
2022-08-08T17:29:04.511Z,0.70
2022-08-08T17:31:45.655Z,0.53
2022-08-08T17:34:48.988Z,0.80
2022-08-08T17:37:09.027Z,0.60
2022-08-08T17:40:02.789Z,0.67
2022-08-08T17:42:25.352Z,0.63
2022-08-08T17:44:52.942Z,0.70
2022-08-08T17:47:24.063Z,0.67
2022-08-08T17:49:53.114Z,0.70
2022-08-08T17:52:28.494Z,0.70
2022-08-08T17:54:56.927Z,0.60
2022-08-08T17:57:24.723Z,0.80
2022-08-08T17:59:58.798Z,0.67
2022-08-08T18:02:29.958Z,0.70
2022-08-08T18:05:00.924Z,0.90
2022-08-08T18:08:02.356Z,0.60
2022-08-08T18:10:20.939Z,0.70
2022-08-08T18:12:58.419Z,0.70
2022-08-08T18:15:25.538Z,0.80
2022-08-08T18:18:09.515Z,1.30
2022-08-08T18:20:54.920Z,0.80
2022-08-08T18:23:26.333Z,0.87
2022-08-08T18:25:53.372Z,0.83
2022-08-08T18:28:25.480Z,0.90
2022-08-08T18:30:52.601Z,1.10
2022-08-08T18:33:36.526Z,0.90
2022-08-08T18:36:10.226Z,1.10
2022-08-08T18:38:50.567Z,0.90
2022-08-08T18:41:19.129Z,1.10
2022-08-08T18:43:46.082Z,1.00
2022-08-08T18:46:55.151Z,1.10
2022-08-08T18:48:59.894Z,1.10
2022-08-08T18:51:52.605Z,1.00
2022-08-08T18:54:22.329Z,0.93
2022-08-08T18:56:55.150Z,1.20
2022-08-08T18:59:34.546Z,1.40
2022-08-08T19:02:25.620Z,1.17
2022-08-08T19:04:52.143Z,1.03
2022-08-08T19:07:22.988Z,1.10
2022-08-08T19:10:13.668Z,0.80
2022-08-08T19:12:39.562Z,1.80
2022-08-08T19:15:11.950Z,1.10
2022-08-08T19:17:48.103Z,1.10
2022-08-08T19:20:29.616Z,1.00
2022-08-08T19:22:58.957Z,1.03
2022-08-08T19:26:01.891Z,0.97
2022-08-08T19:28:18.021Z,1.00
2022-08-08T19:30:51.432Z,1.40
2022-08-08T19:33:52.313Z,3.33
2022-08-08T19:36:27.702Z,2.50
2022-08-08T19:38:56.659Z,1.30
2022-08-08T19:41:33.682Z,1.20
2022-08-08T19:44:04.051Z,1.83
2022-08-08T19:46:39.552Z,1.17
2022-08-08T19:49:06.330Z,1.30
2022-08-08T19:51:41.374Z,1.27
2022-08-08T19:54:11.272Z,1.20
2022-08-08T19:56:40.203Z,1.33
2022-08-08T19:59:09.946Z,1.23
2022-08-08T20:02:01.450Z,1.30
2022-08-08T20:04:23.953Z,1.43
2022-08-08T20:06:51.070Z,1.27
2022-08-08T20:09:22.959Z,1.47
2022-08-08T20:11:52.816Z,1.10
2022-08-08T20:14:33.675Z,1.30
2022-08-08T20:17:04.458Z,1.07
2022-08-08T20:19:34.814Z,1.00
2022-08-08T20:22:20.734Z,1.60
2022-08-08T20:24:53.176Z,1.20
2022-08-08T20:27:21.118Z,1.10
2022-08-08T20:30:00.334Z,1.40
2022-08-08T20:32:29.863Z,1.13
2022-08-08T20:35:02.091Z,1.07
2022-08-08T20:37:46.856Z,1.30
2022-08-08T20:40:17.848Z,1.23
2022-08-08T20:43:01.196Z,1.10
2022-08-08T20:45:54.651Z,1.33
2022-08-08T20:48:18.583Z,1.30
2022-08-08T20:50:52.717Z,1.37
2022-08-08T20:54:00.932Z,1.30
2022-08-08T20:56:08.122Z,1.40
2022-08-08T20:58:34.919Z,1.20
2022-08-08T21:01:01.749Z,1.33
2022-08-08T21:03:29.990Z,1.50
2022-08-08T21:05:59.522Z,1.80
2022-08-08T21:08:36.375Z,1.80
2022-08-08T21:11:14.031Z,1.60
2022-08-08T21:13:43.430Z,1.20
2022-08-08T21:16:20.602Z,1.37
2022-08-08T21:18:58.480Z,1.43
2022-08-08T21:21:39.697Z,2.67
2022-08-08T21:24:22.271Z,1.37
2022-08-08T21:26:54.038Z,1.60
2022-08-08T21:29:21.574Z,1.80
2022-08-08T21:31:58.582Z,2.10
2022-08-08T21:34:29.918Z,2.23
2022-08-08T21:36:58.515Z,1.77
2022-08-08T21:39:27.362Z,1.87
2022-08-08T21:42:12.202Z,2.00
2022-08-08T21:44:38.995Z,1.70
2022-08-08T21:48:00.347Z,1.90
2022-08-08T21:50:13.100Z,1.70
2022-08-08T21:54:22.584Z,2.10
2022-08-08T21:56:19.065Z,1.50
2022-08-08T21:58:14.580Z,1.80
2022-08-08T22:00:43.945Z,2.13
2022-08-08T22:03:15.494Z,1.70
2022-08-08T22:05:45.807Z,1.50
2022-08-08T22:08:15.370Z,1.90
2022-08-08T22:10:51.670Z,1.97
2022-08-08T22:13:22.161Z,1.77
2022-08-08T22:15:59.439Z,1.60
2022-08-08T22:18:30.195Z,1.70
2022-08-08T22:21:08.312Z,2.40
2022-08-08T22:23:40.922Z,2.07
2022-08-08T22:26:26.978Z,1.97
2022-08-08T22:29:13.590Z,4.83
2022-08-08T22:31:43.273Z,1.93
2022-08-08T22:34:14.013Z,1.60
2022-08-08T22:36:42.948Z,1.77
2022-08-08T22:39:19.214Z,4.23
2022-08-08T22:41:46.827Z,2.17
2022-08-08T22:44:16.764Z,2.10
2022-08-08T22:46:45.782Z,1.73
2022-08-08T22:49:20.007Z,2.23
2022-08-08T22:51:47.343Z,2.40
2022-08-08T22:54:30.926Z,1.87
2022-08-08T22:57:01.465Z,2.60
2022-08-08T22:59:35.819Z,2.00
2022-08-08T23:02:14.974Z,2.03
2022-08-08T23:05:05.198Z,2.43
2022-08-08T23:07:51.688Z,1.80
2022-08-08T23:10:25.114Z,1.87
2022-08-08T23:12:52.426Z,5.57
2022-08-08T23:16:41.549Z,2.50
2022-08-08T23:18:12.003Z,2.13
2022-08-08T23:20:41.131Z,2.00
2022-08-08T23:23:12.193Z,1.70
2022-08-08T23:25:48.422Z,2.30
2022-08-08T23:28:18.049Z,1.80
2022-08-08T23:30:47.494Z,2.10
2022-08-08T23:33:20.963Z,2.33
2022-08-08T23:36:08.567Z,2.07
2022-08-08T23:38:44.334Z,2.70
2022-08-08T23:41:22.802Z,2.50
2022-08-08T23:43:54.061Z,2.10
2022-08-08T23:49:05.809Z,2.50
2022-08-08T23:49:15.027Z,2.27
2022-08-08T23:52:04.446Z,2.13
2022-08-08T23:54:42.707Z,2.37
2022-08-08T23:57:26.519Z,2.30
